Lindon, UT

9:41 AM MDT on October 24, 2014 (GMT -0600)
Lindon Creekside Park | Change Station
CLOSE
Current Station
Personal Weather Station
Location: Lindon, UT
Elevation: 4594 ft
Nearby Weather Stations
Active Advisory: Special Statement

Elev 4594 ft 40.34 °N, 111.73 °W | Updated 2 minutes ago

Clear
Clear
55.0 °F
Feels Like 55.0 °F
N
0.0
Wind Variable Wind from SSW
Gusts 0.0 mph

Today
High -- | Low -- °F
--% Chance of Precip.
Yesterday
High -- | Low -- °F
Precip. -- in
7:47 AM 6:34 PM
New Moon, 1% visible
Pressure 30.22 in
Visibility 15.0 miles
Clouds Clear
Dew Point 38 °F
Humidity 52%
Rainfall 0.00 in
Snow Depth 1 in , 1 in
UV 1 out of 12
Pollen 1.80 out of 12
Air Quality Not available.
Flu Activity Sporadic
METAR KPVU 241458Z 11007KT 15SM SKC 11/M01 A3022

More Conditions Fewer Conditions

Pressure 30.22 in
Visibility 15.0 miles
Clouds Clear
Dew Point 38 °F
Humidity 52%
Rainfall 0.00 in
Snow Depth 1 in , 1 in
UV 1 out of 12
Pollen 1.80 out of 12
Air Quality Not available.
Flu Activity Sporadic
METAR KPVU 241458Z 11007KT 15SM SKC 11/M01 A3022

More Conditions Fewer Conditions

10-Day Weather Forecast

Almanac

Astronomy

Oct. 24, 2014 Rise Set
Actual Time 7:47 AM MDT 6:34 PM MDT
Civil Twilight 7:19 AM MDT 7:01 PM MDT
Nautical Twilight 6:48 AM MDT 7:33 PM MDT
Astronomical Twilight 6:16 AM MDT 8:05 PM MDT
Moon 8:30 AM MDT 7:16 PM MDT
Length of Visible Light 11h 41m
Length of Day
10h 46m
Tomorrow will be 2m 28s shorter.
New Moon, 1% of the Moon is Illuminated
Today
New Moon
Oct 30
First Quarter
Nov 6
Full
Nov 14
Last Quarter
Nov 22
New

Today's Extremes

State Highs State Lows

Community

WunderPhotos

Upload Photos

1,764,590 photos uploaded!

WunderBlogs® & News

Nearby

Snow Depth

Station Depth Elevation
Cascade Mountain 1 in 7768 ft
Brighton 1 in 8750 ft
Mill-d North 0 in 8960 ft
Thaynes Canyon 0 in 9200 ft
Rocky Basin-Settlement 0 in 8900 ft

Earthquake Activity

City Distance Mag. Time & Date
Ferron, Utah 96 miles 2.5 10:53 PM MDT
2014-10-21
Minimum magnitude displayed is 2.5.

Coastal Water Temperatures

Place Temperature
No Stations Reporting

Nearby Weather Stations